Nearby METAR Reports (Airport Weather)

 

KBZN - Bozeman Yellowstone Intl Airport, Montana
Distance from station: ESE 1mi, 2km
Updated: Mon, 30-Mar-2020 12:56am MDT
Overcast
Overcast
 Wind from SE
Wind: SE 7 mph , 11 km/h
Temperature: 37°F , 3°C
Wind Chill: 32°F , 0°C
Dew Point: 25°F , -4°C
Humidity: 60%
Barometer: 29.91 inHg , 1012.9 hPa
Clouds: Overcast
Visibility: 10 miles , 16 km
Cloud details: Overcast 6000 ft
2020/03/30 06:56 KBZN 300656Z AUTO 14006KT 10SM OVC060 03/M04 A2991 RMK AO2 SLP129 T00331039 401331050
KLVM - Mission Field, Livingston, Montana
Distance from station: E 37mi, 59km
Updated: Sun, 29-Mar-2020 11:53pm MDT
Clear
Clear
 Wind from SSW
Wind: SSW 22 mph , 35 km/h, Gust: 30 mph , 48 km/h
Temperature: 43°F , 6°C
Wind Chill: 34°F , 1°C
Dew Point: 23°F , -5°C
Humidity: 46%
Barometer: 29.87 inHg , 1011.5 hPa
Clouds: Clear
Visibility: 10 miles , 16 km
2020/03/30 05:53 KLVM 300553Z AUTO 20019G26KT 10SM CLR 06/M05 A2987 RMK AO2 PK WND 21027/0539 SLP110 T00561050 10111 20033 50001
 
KEKS - Big Sky Airport, Ennis, Montana
Distance from station: SSW 43mi, 69km
Updated: Mon, 30-Mar-2020 12:35am MDT
Overcast
Overcast
 Wind from S
Wind: S 13 mph , 20 km/h
Temperature: 37°F , 3°C
Wind Chill: 29°F , -2°C
Dew Point: 30°F , -1°C
Humidity: 75%
Barometer: 29.96 inHg , 1014.6 hPa
Clouds: Overcast
Visibility: 10 miles , 16 km
Cloud details: Overcast 6000 ft
2020/03/30 06:35 KEKS 300635Z AUTO 19011KT 10SM OVC060 03/M01 A2996 RMK AO2